Time;durP1;ratioP1;P1;durP2;ratioP2;P2;SDS_P1;SDS_P2;PMS_P1;PMS_P2;Temp;Humidity;BMP_temperature;BMP_pressure;BME280_temperature;BME280_humidity;BME280_pressure;Samples;Min_cycle;Max_cycle;Signal;HPM_P1;HPM_P2
2022/10/29 00:00:38;;;;;;;32.27;23.53;;;;;;;;;;5058935;28;20451;-81
2022/10/29 00:03:06;;;;;;;22.63;20.70;;;;;;;;;;5058010;28;20473;-81
2022/10/29 00:05:35;;;;;;;23.50;21.77;;;;;;;;;;5056775;28;20475;-83
2022/10/29 00:08:02;;;;;;;25.87;23.20;;;;;;;;;;5058283;28;20770;-81
2022/10/29 00:10:29;;;;;;;27.53;25.30;;;;;;;;;;5057628;28;20433;-81
2022/10/29 00:13:00;;;;;;;26.07;24.00;;;;;;;;;;5057026;28;20457;-81
2022/10/29 00:15:28;;;;;;;24.77;22.83;;;;;;;;;;5058063;28;20482;-82
2022/10/29 00:17:55;;;;;;;24.53;22.63;;;;;;;;;;5057295;28;20445;-82
2022/10/29 00:20:22;;;;;;;29.40;23.93;;;;;;;;;;5058558;28;20430;-81
2022/10/29 00:22:53;;;;;;;24.07;22.17;;;;;;;;;;5058443;28;20458;-81
2022/10/29 00:25:20;;;;;;;25.30;23.27;;;;;;;;;;5058780;28;20442;-81
2022/10/29 00:27:48;;;;;;;25.53;23.03;;;;;;;;;;5058112;28;20880;-81
2022/10/29 00:30:15;;;;;;;25.10;23.10;;;;;;;;;;5058322;28;20427;-81
2022/10/29 00:32:43;;;;;;;25.83;23.40;;;;;;;;;;5057790;28;20442;-83
2022/10/29 00:35:10;;;;;;;24.13;21.73;;;;;;;;;;5058668;28;20435;-81
2022/10/29 00:37:39;;;;;;;27.00;24.40;;;;;;;;;;5057949;28;20439;-83
2022/10/29 00:40:09;;;;;;;26.80;23.80;;;;;;;;;;5058332;28;20518;-82
2022/10/29 00:42:36;;;;;;;24.30;22.23;;;;;;;;;;5057203;28;20418;-83
2022/10/29 00:45:04;;;;;;;24.00;22.10;;;;;;;;;;5057723;28;20465;-81
2022/10/29 00:47:32;;;;;;;25.10;23.10;;;;;;;;;;5057752;28;20445;-82
2022/10/29 00:50:01;;;;;;;24.17;22.30;;;;;;;;;;5056977;28;20448;-83
2022/10/29 00:52:30;;;;;;;25.07;23.27;;;;;;;;;;5057093;28;20448;-83
2022/10/29 00:54:59;;;;;;;25.40;23.27;;;;;;;;;;5058036;28;20420;-81
2022/10/29 00:57:30;;;;;;;30.13;26.30;;;;;;;;;;5057995;28;20448;-81
2022/10/29 00:59:58;;;;;;;25.73;22.20;;;;;;;;;;5058551;28;20423;-83
2022/10/29 01:02:26;;;;;;;24.57;22.67;;;;;;;;;;5058010;28;20429;-82
2022/10/29 01:04:54;;;;;;;25.33;23.23;;;;;;;;;;5057387;28;20466;-81
2022/10/29 01:07:22;;;;;;;26.30;22.90;;;;;;;;;;5057361;28;21032;-81
2022/10/29 01:09:50;;;;;;;25.83;23.50;;;;;;;;;;5058164;28;20517;-82
2022/10/29 01:12:32;;;;;;;24.10;22.20;;;;;;;;;;5057421;28;20437;-82
2022/10/29 01:15:06;;;;;;;26.53;23.10;;;;;;;;;;5044446;28;20429;-82
2022/10/29 01:17:37;;;;;;;28.43;22.20;;;;;;;;;;5060411;28;20449;-83
2022/10/29 01:20:19;;;;;;;25.57;23.47;;;;;;;;;;5061209;28;20837;-83
2022/10/29 01:22:49;;;;;;;25.17;23.27;;;;;;;;;;5058569;28;20450;-81
2022/10/29 01:25:29;;;;;;;25.43;23.13;;;;;;;;;;5061224;28;20810;-81
2022/10/29 01:28:00;;;;;;;27.80;25.07;;;;;;;;;;5060830;28;20441;-81
2022/10/29 01:30:54;;;;;;;27.90;23.50;;;;;;;;;;5061699;28;20454;-81
2022/10/29 01:33:24;;;;;;;25.50;22.90;;;;;;;;;;5047960;28;20993;-81
2022/10/29 01:35:56;;;;;;;26.17;23.93;;;;;;;;;;5061388;28;20469;-82
2022/10/29 01:38:27;;;;;;;23.90;21.53;;;;;;;;;;5061100;28;20409;-82
2022/10/29 01:40:58;;;;;;;25.00;23.07;;;;;;;;;;5060405;28;20449;-81
2022/10/29 01:43:27;;;;;;;26.10;23.60;;;;;;;;;;5061858;28;20454;-81
2022/10/29 01:45:57;;;;;;;24.73;22.57;;;;;;;;;;5060551;28;20472;-82
2022/10/29 01:48:28;;;;;;;26.63;24.00;;;;;;;;;;5059648;28;20805;-82
2022/10/29 01:50:58;;;;;;;24.93;22.50;;;;;;;;;;5059813;28;20442;-83
2022/10/29 01:53:26;;;;;;;25.77;23.60;;;;;;;;;;5060934;28;20470;-82
2022/10/29 01:55:53;;;;;;;27.73;25.30;;;;;;;;;;5061355;28;20418;-81
2022/10/29 01:58:21;;;;;;;25.77;23.20;;;;;;;;;;5061394;28;20437;-82
2022/10/29 02:00:55;;;;;;;26.53;23.80;;;;;;;;;;5060734;28;20429;-83
2022/10/29 02:03:33;;;;;;;29.97;24.50;;;;;;;;;;5060187;28;20488;-81
2022/10/29 02:06:04;;;;;;;26.57;24.37;;;;;;;;;;5060126;28;20460;-81
2022/10/29 02:08:36;;;;;;;26.70;24.57;;;;;;;;;;5060435;28;20444;-82
2022/10/29 02:11:08;;;;;;;27.70;23.00;;;;;;;;;;5060010;28;20450;-83
2022/10/29 02:13:38;;;;;;;25.90;23.50;;;;;;;;;;5060574;28;20477;-83
2022/10/29 02:16:07;;;;;;;25.67;23.63;;;;;;;;;;5060542;28;20455;-82
2022/10/29 02:18:41;;;;;;;25.80;23.63;;;;;;;;;;5060443;28;20444;-81
2022/10/29 02:21:09;;;;;;;25.33;23.53;;;;;;;;;;5058230;28;20425;-82
2022/10/29 02:23:36;;;;;;;26.00;23.70;;;;;;;;;;5059670;28;20881;-83
2022/10/29 02:26:04;;;;;;;26.27;24.07;;;;;;;;;;5058511;28;21024;-81
2022/10/29 02:28:31;;;;;;;25.87;23.87;;;;;;;;;;5058131;28;20441;-80
2022/10/29 02:30:59;;;;;;;26.83;24.63;;;;;;;;;;5059086;28;20425;-82
2022/10/29 02:33:26;;;;;;;27.20;24.80;;;;;;;;;;5059616;28;20477;-82
2022/10/29 02:35:55;;;;;;;25.13;23.27;;;;;;;;;;5059104;28;20444;-82
2022/10/29 02:38:22;;;;;;;26.30;23.80;;;;;;;;;;5059076;28;20435;-80
2022/10/29 02:40:49;;;;;;;25.33;23.30;;;;;;;;;;5059604;28;20452;-82
2022/10/29 02:43:16;;;;;;;27.50;25.33;;;;;;;;;;5058381;28;20433;-81
2022/10/29 02:45:44;;;;;;;26.43;24.47;;;;;;;;;;5058929;28;20466;-81
2022/10/29 02:48:11;;;;;;;27.70;25.37;;;;;;;;;;5058254;28;20471;-81
2022/10/29 02:50:39;;;;;;;26.93;24.43;;;;;;;;;;5058677;28;20422;-82
2022/10/29 02:53:07;;;;;;;25.77;23.50;;;;;;;;;;5058531;28;20449;-81
2022/10/29 02:55:35;;;;;;;28.33;26.23;;;;;;;;;;5059197;28;20443;-81
2022/10/29 02:58:02;;;;;;;25.23;23.23;;;;;;;;;;5058509;28;20471;-80
2022/10/29 03:00:29;;;;;;;27.93;25.07;;;;;;;;;;5059354;28;20410;-82
2022/10/29 03:02:57;;;;;;;25.73;23.70;;;;;;;;;;5057844;28;20471;-81
2022/10/29 03:05:24;;;;;;;26.43;23.47;;;;;;;;;;5058198;28;20502;-81
2022/10/29 03:07:51;;;;;;;25.67;23.33;;;;;;;;;;5058637;28;20460;-81
2022/10/29 03:10:20;;;;;;;26.70;24.70;;;;;;;;;;5059398;28;20422;-80
2022/10/29 03:12:48;;;;;;;26.07;23.37;;;;;;;;;;5057867;28;20810;-80
2022/10/29 03:15:15;;;;;;;26.97;24.87;;;;;;;;;;5058381;28;20436;-81
2022/10/29 03:17:42;;;;;;;27.23;24.70;;;;;;;;;;5058532;28;20454;-81
2022/10/29 03:20:10;;;;;;;28.67;26.13;;;;;;;;;;5058190;28;20466;-81
2022/10/29 03:22:37;;;;;;;27.33;25.00;;;;;;;;;;5057575;28;20429;-82
2022/10/29 03:25:05;;;;;;;26.30;23.70;;;;;;;;;;5058640;28;20474;-81
2022/10/29 03:27:33;;;;;;;27.97;25.10;;;;;;;;;;5058587;28;20945;-81
2022/10/29 03:30:01;;;;;;;27.10;25.03;;;;;;;;;;5058231;28;20426;-80
2022/10/29 03:32:28;;;;;;;29.57;26.80;;;;;;;;;;5057406;28;20470;-80
2022/10/29 03:34:55;;;;;;;27.57;25.20;;;;;;;;;;5058303;28;20433;-82
2022/10/29 03:37:23;;;;;;;26.93;24.53;;;;;;;;;;5058431;28;20463;-82
2022/10/29 03:39:50;;;;;;;26.93;24.60;;;;;;;;;;5058013;28;20454;-81
2022/10/29 03:42:17;;;;;;;25.70;23.80;;;;;;;;;;5057263;28;20461;-81
2022/10/29 03:44:46;;;;;;;25.80;23.70;;;;;;;;;;5058609;28;20446;-80
2022/10/29 03:47:13;;;;;;;27.80;24.93;;;;;;;;;;5058789;28;20417;-81
2022/10/29 03:49:41;;;;;;;26.70;24.40;;;;;;;;;;5057400;28;20458;-80
2022/10/29 03:52:08;;;;;;;27.27;24.57;;;;;;;;;;5057524;28;20796;-80
2022/10/29 03:54:35;;;;;;;26.60;24.40;;;;;;;;;;5056854;28;21064;-80
2022/10/29 03:57:02;;;;;;;28.40;26.20;;;;;;;;;;5058004;28;20416;-80
2022/10/29 03:59:30;;;;;;;28.63;25.60;;;;;;;;;;5057881;28;20821;-80
2022/10/29 04:01:59;;;;;;;32.30;25.37;;;;;;;;;;5058114;28;20766;-81
2022/10/29 04:04:26;;;;;;;26.67;24.07;;;;;;;;;;5058117;28;20949;-81
2022/10/29 04:06:53;;;;;;;27.93;25.13;;;;;;;;;;5057337;28;20521;-81
2022/10/29 04:09:21;;;;;;;25.80;23.70;;;;;;;;;;5057247;28;20431;-81
2022/10/29 04:11:48;;;;;;;28.30;26.00;;;;;;;;;;5057146;28;21020;-82
2022/10/29 04:14:15;;;;;;;27.60;25.23;;;;;;;;;;5057700;28;20487;-80
2022/10/29 04:16:43;;;;;;;27.07;24.80;;;;;;;;;;5057421;28;20454;-82
2022/10/29 04:19:11;;;;;;;26.27;23.80;;;;;;;;;;5057027;28;20451;-82
2022/10/29 04:21:39;;;;;;;27.33;24.87;;;;;;;;;;5056878;28;20811;-81
2022/10/29 04:24:07;;;;;;;26.27;24.13;;;;;;;;;;5056641;28;21080;-80
2022/10/29 04:26:34;;;;;;;26.67;24.77;;;;;;;;;;5057009;28;20457;-81
2022/10/29 04:29:01;;;;;;;26.17;24.37;;;;;;;;;;5056801;28;20467;-80
2022/10/29 04:31:28;;;;;;;26.33;23.70;;;;;;;;;;5057024;28;20425;-82
2022/10/29 04:33:56;;;;;;;29.00;26.70;;;;;;;;;;5056763;28;20449;-81
2022/10/29 04:36:25;;;;;;;28.27;26.07;;;;;;;;;;5057542;28;20470;-81
2022/10/29 04:38:52;;;;;;;27.90;24.90;;;;;;;;;;5056910;28;20452;-81
2022/10/29 04:41:19;;;;;;;28.53;26.10;;;;;;;;;;5055749;28;20445;-81
2022/10/29 04:43:47;;;;;;;26.87;24.77;;;;;;;;;;5057116;28;20445;-81
2022/10/29 04:46:14;;;;;;;27.03;24.60;;;;;;;;;;5056794;28;20462;-82
2022/10/29 04:48:42;;;;;;;26.03;23.70;;;;;;;;;;5056999;28;20433;-81
2022/10/29 04:51:18;;;;;;;26.13;23.80;;;;;;;;;;5055477;28;20470;-82
2022/10/29 04:53:47;;;;;;;26.83;24.30;;;;;;;;;;5057228;28;20467;-82
2022/10/29 04:56:14;;;;;;;25.37;23.57;;;;;;;;;;5057148;28;20417;-80
2022/10/29 04:58:41;;;;;;;26.00;23.80;;;;;;;;;;5056897;28;20521;-82
2022/10/29 05:01:09;;;;;;;28.40;25.50;;;;;;;;;;5056249;28;20978;-82
2022/10/29 05:03:36;;;;;;;34.10;27.10;;;;;;;;;;5056776;28;20448;-80
2022/10/29 05:06:04;;;;;;;30.20;27.30;;;;;;;;;;5056739;28;20490;-82
2022/10/29 05:08:31;;;;;;;31.20;28.20;;;;;;;;;;5056942;28;20428;-82
2022/10/29 05:11:01;;;;;;;28.83;26.30;;;;;;;;;;5056484;28;20479;-82
2022/10/29 05:13:29;;;;;;;31.43;28.57;;;;;;;;;;5056767;28;20473;-81
2022/10/29 05:15:56;;;;;;;28.87;26.47;;;;;;;;;;5056467;28;20433;-81
2022/10/29 05:18:23;;;;;;;29.27;26.87;;;;;;;;;;5056674;28;20436;-81
2022/10/29 05:20:53;;;;;;;27.50;25.13;;;;;;;;;;5056507;28;20468;-82
2022/10/29 05:23:21;;;;;;;28.67;26.17;;;;;;;;;;5055210;28;20475;-81
2022/10/29 05:25:50;;;;;;;28.17;25.60;;;;;;;;;;5056113;28;20453;-80
2022/10/29 05:28:19;;;;;;;30.40;28.00;;;;;;;;;;5056796;28;20851;-82
2022/10/29 05:30:47;;;;;;;28.47;25.67;;;;;;;;;;5057688;28;20443;-80
2022/10/29 05:33:15;;;;;;;28.70;26.30;;;;;;;;;;5056739;28;20981;-81
2022/10/29 05:35:43;;;;;;;30.37;27.57;;;;;;;;;;5056666;28;20459;-81
2022/10/29 05:38:10;;;;;;;31.40;28.77;;;;;;;;;;5056231;28;20978;-81
2022/10/29 05:40:38;;;;;;;33.57;30.03;;;;;;;;;;5057026;28;20414;-83
2022/10/29 05:43:05;;;;;;;32.20;29.10;;;;;;;;;;5056007;28;20455;-81
2022/10/29 05:45:35;;;;;;;30.30;27.40;;;;;;;;;;5057086;28;20432;-81
2022/10/29 05:48:03;;;;;;;30.93;28.27;;;;;;;;;;5056772;28;20437;-82
2022/10/29 05:50:31;;;;;;;32.07;29.07;;;;;;;;;;5057081;28;20774;-82
2022/10/29 05:52:59;;;;;;;31.50;29.10;;;;;;;;;;5055461;28;20452;-81
2022/10/29 05:55:27;;;;;;;32.23;29.43;;;;;;;;;;5057131;28;20935;-82
2022/10/29 05:57:56;;;;;;;31.77;29.07;;;;;;;;;;5056310;28;20450;-82
2022/10/29 06:00:23;;;;;;;33.87;30.30;;;;;;;;;;5056683;28;20599;-81
2022/10/29 06:02:52;;;;;;;32.50;29.50;;;;;;;;;;5056436;28;20473;-81
2022/10/29 06:05:20;;;;;;;31.30;28.50;;;;;;;;;;5060077;28;20905;-82
2022/10/29 06:07:48;;;;;;;31.50;28.47;;;;;;;;;;5059754;28;20455;-81
2022/10/29 06:10:15;;;;;;;31.97;29.17;;;;;;;;;;5060276;28;20462;-81
2022/10/29 06:12:43;;;;;;;32.43;29.30;;;;;;;;;;5058289;28;20461;-83
2022/10/29 06:15:11;;;;;;;31.33;28.43;;;;;;;;;;5060464;28;20433;-82
2022/10/29 06:17:41;;;;;;;31.13;28.80;;;;;;;;;;5059264;28;20914;-82
2022/10/29 06:20:11;;;;;;;32.27;29.50;;;;;;;;;;5060536;28;20918;-81
2022/10/29 06:22:38;;;;;;;32.60;29.67;;;;;;;;;;5058414;28;20447;-82
2022/10/29 06:25:06;;;;;;;33.87;30.57;;;;;;;;;;5059606;28;20470;-81
2022/10/29 06:27:33;;;;;;;34.73;31.50;;;;;;;;;;5059130;28;20506;-78
2022/10/29 06:30:01;;;;;;;34.23;31.03;;;;;;;;;;5057721;28;20425;-78
2022/10/29 06:32:28;;;;;;;30.97;28.17;;;;;;;;;;5056440;28;20487;-80
2022/10/29 06:34:55;;;;;;;33.30;30.30;;;;;;;;;;5057542;28;20561;-78
2022/10/29 06:37:24;;;;;;;31.50;28.60;;;;;;;;;;5056947;28;20453;-79
2022/10/29 06:39:51;;;;;;;34.60;30.97;;;;;;;;;;5057353;28;20454;-79
2022/10/29 06:42:18;;;;;;;31.07;28.57;;;;;;;;;;5057146;28;20433;-81
2022/10/29 06:44:46;;;;;;;33.20;29.80;;;;;;;;;;5057287;28;20443;-80
2022/10/29 06:47:14;;;;;;;32.73;29.13;;;;;;;;;;5056573;28;20454;-80
2022/10/29 06:49:41;;;;;;;34.20;30.93;;;;;;;;;;5056959;28;20428;-81
2022/10/29 06:52:08;;;;;;;31.13;28.43;;;;;;;;;;5056071;28;20441;-80
2022/10/29 06:54:37;;;;;;;28.93;26.50;;;;;;;;;;5056944;28;20457;-82
2022/10/29 06:57:04;;;;;;;30.33;27.97;;;;;;;;;;5056931;28;20421;-80
2022/10/29 06:59:31;;;;;;;32.03;27.33;;;;;;;;;;5056881;28;20445;-80
2022/10/29 07:01:59;;;;;;;30.20;27.37;;;;;;;;;;5055610;28;20467;-81
2022/10/29 07:04:26;;;;;;;29.13;26.67;;;;;;;;;;5057195;28;20474;-80
2022/10/29 07:06:54;;;;;;;28.93;26.23;;;;;;;;;;5056058;28;21033;-80
2022/10/29 07:09:21;;;;;;;30.20;27.63;;;;;;;;;;5057179;28;20410;-80
2022/10/29 07:11:50;;;;;;;30.77;27.47;;;;;;;;;;5056181;28;20422;-80
2022/10/29 07:14:17;;;;;;;30.37;27.17;;;;;;;;;;5056757;28;20465;-83
2022/10/29 07:16:45;;;;;;;29.13;26.87;;;;;;;;;;5056018;28;20435;-79
2022/10/29 07:19:12;;;;;;;29.90;27.30;;;;;;;;;;5057163;28;20495;-87
2022/10/29 07:21:39;;;;;;;31.53;27.63;;;;;;;;;;5055867;28;20448;-86
2022/10/29 07:24:07;;;;;;;30.37;27.47;;;;;;;;;;5059801;28;20507;-82
2022/10/29 07:26:34;;;;;;;30.43;27.70;;;;;;;;;;5060515;28;20499;-83
2022/10/29 07:29:04;;;;;;;30.07;27.13;;;;;;;;;;5058771;28;20422;-88
2022/10/29 07:31:32;;;;;;;30.77;28.30;;;;;;;;;;5055910;28;20418;-77
2022/10/29 07:33:59;;;;;;;30.60;28.13;;;;;;;;;;5053302;28;20447;-78
2022/10/29 07:36:27;;;;;;;31.40;28.50;;;;;;;;;;5053936;28;20423;-77
2022/10/29 07:38:54;;;;;;;31.37;28.43;;;;;;;;;;5054286;28;20479;-77
2022/10/29 07:41:21;;;;;;;28.97;26.70;;;;;;;;;;5054863;28;20453;-86
2022/10/29 07:43:49;;;;;;;30.07;27.50;;;;;;;;;;5054352;28;20442;-77
2022/10/29 07:46:18;;;;;;;30.53;27.80;;;;;;;;;;5052863;28;20426;-77
2022/10/29 07:48:45;;;;;;;30.57;27.53;;;;;;;;;;5053034;28;20442;-77
2022/10/29 07:51:13;;;;;;;30.70;27.80;;;;;;;;;;5053138;28;20422;-77
2022/10/29 07:53:40;;;;;;;28.70;26.37;;;;;;;;;;5053211;28;20474;-79
2022/10/29 07:56:08;;;;;;;29.57;26.97;;;;;;;;;;5053440;28;20450;-78
2022/10/29 07:58:35;;;;;;;29.10;26.63;;;;;;;;;;5053248;28;20513;-77
2022/10/29 08:01:03;;;;;;;32.97;26.07;;;;;;;;;;5052937;28;20929;-80
2022/10/29 08:03:32;;;;;;;29.20;26.30;;;;;;;;;;5052673;28;21034;-78
2022/10/29 08:05:59;;;;;;;27.47;24.97;;;;;;;;;;5053503;28;20485;-77
2022/10/29 08:08:27;;;;;;;28.97;26.23;;;;;;;;;;5053374;28;20482;-77
2022/10/29 08:10:54;;;;;;;27.03;23.47;;;;;;;;;;5053390;28;20452;-77
2022/10/29 08:13:21;;;;;;;26.87;24.70;;;;;;;;;;5052401;28;20479;-77
2022/10/29 08:15:49;;;;;;;29.50;26.77;;;;;;;;;;5053107;28;20425;-78
2022/10/29 08:18:17;;;;;;;26.90;24.80;;;;;;;;;;5052780;28;20517;-78
2022/10/29 08:20:46;;;;;;;26.87;24.20;;;;;;;;;;5052933;28;20459;-78
2022/10/29 08:23:14;;;;;;;27.00;24.67;;;;;;;;;;5052340;28;20971;-78
2022/10/29 08:25:41;;;;;;;25.80;23.80;;;;;;;;;;5051909;28;20466;-78
2022/10/29 08:28:10;;;;;;;24.93;23.10;;;;;;;;;;5052113;28;20483;-77
2022/10/29 08:30:37;;;;;;;26.03;24.10;;;;;;;;;;5052094;28;20969;-77
2022/10/29 08:33:05;;;;;;;27.80;24.80;;;;;;;;;;5052434;28;20446;-77
2022/10/29 08:35:32;;;;;;;27.10;24.80;;;;;;;;;;5052870;28;20445;-76
2022/10/29 08:38:02;;;;;;;26.13;24.17;;;;;;;;;;5052576;28;21197;-77
2022/10/29 08:40:30;;;;;;;27.10;24.27;;;;;;;;;;5052607;28;20423;-76
2022/10/29 08:43:21;;;;;;;27.30;24.90;;;;;;;;;;5051486;28;20458;-77
2022/10/29 08:45:49;;;;;;;26.20;24.10;;;;;;;;;;5052708;28;20408;-77
2022/10/29 08:48:22;;;;;;;25.63;23.13;;;;;;;;;;5052647;28;20468;-78
2022/10/29 08:50:52;;;;;;;25.43;23.17;;;;;;;;;;5052479;28;20457;-78
2022/10/29 08:53:22;;;;;;;25.70;23.60;;;;;;;;;;5051986;28;20476;-78
2022/10/29 08:55:49;;;;;;;25.07;22.57;;;;;;;;;;5052470;28;20452;-81
2022/10/29 08:58:20;;;;;;;24.63;22.50;;;;;;;;;;5054475;28;20420;-77
2022/10/29 09:00:49;;;;;;;27.47;22.83;;;;;;;;;;5054959;28;20400;-81
2022/10/29 09:03:16;;;;;;;22.53;20.93;;;;;;;;;;5052227;28;20455;-78
2022/10/29 09:05:49;;;;;;;23.30;21.20;;;;;;;;;;5052982;28;20449;-78
2022/10/29 09:08:24;;;;;;;23.97;21.87;;;;;;;;;;5052056;28;20471;-78
2022/10/29 09:10:53;;;;;;;25.10;23.20;;;;;;;;;;5052639;28;20412;-78
2022/10/29 09:13:30;;;;;;;28.33;22.03;;;;;;;;;;5052606;28;20476;-77
2022/10/29 09:16:05;;;;;;;22.63;21.07;;;;;;;;;;5052617;28;20909;-77
2022/10/29 09:18:39;;;;;;;25.13;22.93;;;;;;;;;;5051756;28;20962;-78
2022/10/29 09:21:12;;;;;;;23.80;21.37;;;;;;;;;;5052017;28;20415;-77
2022/10/29 09:23:50;;;;;;;23.17;21.03;;;;;;;;;;5052728;28;20470;-78
2022/10/29 09:26:23;;;;;;;23.40;21.40;;;;;;;;;;5052601;28;20464;-79
2022/10/29 09:29:00;;;;;;;22.23;20.23;;;;;;;;;;5052343;28;20468;-77
2022/10/29 09:31:30;;;;;;;22.40;20.33;;;;;;;;;;5052268;28;20412;-78
2022/10/29 09:33:59;;;;;;;22.03;20.03;;;;;;;;;;5052900;28;20780;-80
2022/10/29 09:36:27;;;;;;;22.67;20.73;;;;;;;;;;5052560;28;20428;-77
2022/10/29 09:38:57;;;;;;;22.13;20.43;;;;;;;;;;5057368;28;20427;-79
2022/10/29 09:41:27;;;;;;;22.23;20.40;;;;;;;;;;5055295;28;20506;-77
2022/10/29 09:44:00;;;;;;;21.27;19.83;;;;;;;;;;5056038;28;20473;-77
2022/10/29 09:46:33;;;;;;;23.47;21.17;;;;;;;;;;5056195;28;20411;-77
2022/10/29 09:49:04;;;;;;;21.07;19.50;;;;;;;;;;5055093;28;20485;-77
2022/10/29 09:51:34;;;;;;;21.07;19.07;;;;;;;;;;5054626;28;20454;-77
2022/10/29 09:54:05;;;;;;;22.47;20.50;;;;;;;;;;5055367;28;20817;-77
2022/10/29 09:56:33;;;;;;;22.27;20.40;;;;;;;;;;5056017;28;20419;-82
2022/10/29 09:59:08;;;;;;;23.10;20.80;;;;;;;;;;5057094;28;20424;-79
2022/10/29 10:01:35;;;;;;;22.43;20.57;;;;;;;;;;5054607;28;20995;-77
2022/10/29 10:04:07;;;;;;;22.57;20.77;;;;;;;;;;5055299;28;20468;-78
2022/10/29 10:06:55;;;;;;;22.40;20.30;;;;;;;;;;5054015;28;20434;-78
2022/10/29 10:09:25;;;;;;;30.10;21.77;;;;;;;;;;5055243;28;20450;-78
2022/10/29 10:11:53;;;;;;;23.10;20.73;;;;;;;;;;5054756;28;20459;-78
2022/10/29 10:14:21;;;;;;;21.97;20.13;;;;;;;;;;5054254;28;21099;-78
2022/10/29 10:16:57;;;;;;;23.53;20.80;;;;;;;;;;5055597;28;20425;-78
2022/10/29 10:19:25;;;;;;;22.83;20.90;;;;;;;;;;5055468;28;20449;-78
2022/10/29 10:22:02;;;;;;;21.03;19.40;;;;;;;;;;5054714;28;21157;-77
2022/10/29 10:24:32;;;;;;;23.90;21.47;;;;;;;;;;5055181;28;20467;-77
2022/10/29 10:27:00;;;;;;;23.03;21.00;;;;;;;;;;5054816;28;20448;-77
2022/10/29 10:29:28;;;;;;;23.20;21.17;;;;;;;;;;5054674;28;20469;-77
2022/10/29 10:32:10;;;;;;;23.30;21.57;;;;;;;;;;5054425;28;20429;-77
2022/10/29 10:34:39;;;;;;;22.57;20.77;;;;;;;;;;5052575;28;20535;-78
2022/10/29 10:37:08;;;;;;;23.43;21.50;;;;;;;;;;5054833;28;20956;-77
2022/10/29 10:39:37;;;;;;;22.10;20.53;;;;;;;;;;5055118;28;20435;-78
2022/10/29 10:42:05;;;;;;;22.03;20.10;;;;;;;;;;5054487;28;20465;-77
2022/10/29 10:44:33;;;;;;;23.07;20.67;;;;;;;;;;5054191;28;20474;-76
2022/10/29 10:47:07;;;;;;;21.67;20.07;;;;;;;;;;5054781;28;20424;-77
2022/10/29 10:49:35;;;;;;;21.90;20.40;;;;;;;;;;5053877;28;20440;-77
2022/10/29 10:52:05;;;;;;;21.57;20.00;;;;;;;;;;5054330;28;20435;-77
2022/10/29 10:54:35;;;;;;;21.57;20.17;;;;;;;;;;5054384;28;20444;-75
2022/10/29 10:57:05;;;;;;;22.67;20.83;;;;;;;;;;5054694;28;20433;-75
2022/10/29 10:59:44;;;;;;;23.80;21.30;;;;;;;;;;5053964;28;20476;-75
2022/10/29 11:02:18;;;;;;;22.10;20.30;;;;;;;;;;5053889;28;20445;-76
2022/10/29 11:04:46;;;;;;;22.60;20.40;;;;;;;;;;5054190;28;20448;-75
2022/10/29 11:07:14;;;;;;;21.57;19.93;;;;;;;;;;5054392;28;20432;-76
2022/10/29 11:09:44;;;;;;;22.87;21.17;;;;;;;;;;5054359;28;20762;-75
2022/10/29 11:12:14;;;;;;;23.03;20.80;;;;;;;;;;5053899;28;20428;-75
2022/10/29 11:14:45;;;;;;;22.13;20.27;;;;;;;;;;5057971;28;20469;-84
2022/10/29 11:17:20;;;;;;;21.87;20.20;;;;;;;;;;5058523;28;20431;-83
2022/10/29 11:19:49;;;;;;;22.47;20.63;;;;;;;;;;5057219;28;20897;-77
2022/10/29 11:22:19;;;;;;;22.03;19.77;;;;;;;;;;5053540;28;20454;-77
2022/10/29 11:24:49;;;;;;;21.63;19.80;;;;;;;;;;5053891;28;20448;-77
2022/10/29 11:27:22;;;;;;;21.17;19.60;;;;;;;;;;5053788;28;20468;-76
2022/10/29 11:29:53;;;;;;;19.93;18.57;;;;;;;;;;5053856;28;20453;-76
2022/10/29 11:32:23;;;;;;;21.20;19.60;;;;;;;;;;5053744;28;20417;-76
2022/10/29 11:34:54;;;;;;;21.53;20.03;;;;;;;;;;5053997;28;20818;-76
2022/10/29 11:37:26;;;;;;;20.27;18.97;;;;;;;;;;5053417;28;20879;-76
2022/10/29 11:39:57;;;;;;;22.57;20.50;;;;;;;;;;5053804;28;20439;-77
2022/10/29 11:42:26;;;;;;;21.27;19.80;;;;;;;;;;5053461;28;20425;-79
2022/10/29 11:44:53;;;;;;;21.17;19.67;;;;;;;;;;5053072;28;20913;-77
2022/10/29 11:47:28;;;;;;;21.07;19.37;;;;;;;;;;5053559;28;20439;-76
2022/10/29 11:50:03;;;;;;;21.90;20.40;;;;;;;;;;5053142;28;20458;-76
2022/10/29 11:52:31;;;;;;;22.23;20.43;;;;;;;;;;5052867;28;20424;-77
2022/10/29 11:55:04;;;;;;;21.70;20.23;;;;;;;;;;5053832;28;20436;-76
2022/10/29 11:57:37;;;;;;;21.30;19.53;;;;;;;;;;5055695;28;20445;-84
2022/10/29 12:00:10;;;;;;;22.60;20.77;;;;;;;;;;5058892;28;20446;-84
2022/10/29 12:02:51;;;;;;;21.70;20.20;;;;;;;;;;5056152;28;20523;-86
2022/10/29 12:05:23;;;;;;;21.43;19.93;;;;;;;;;;5057741;28;20493;-80
2022/10/29 12:08:00;;;;;;;22.13;20.53;;;;;;;;;;5056775;28;20466;-80
2022/10/29 12:10:39;;;;;;;21.07;19.67;;;;;;;;;;5057805;28;20428;-80
2022/10/29 12:13:14;;;;;;;21.53;20.10;;;;;;;;;;5056839;28;20556;-80
2022/10/29 12:15:59;;;;;;;22.30;20.50;;;;;;;;;;5056751;28;20469;-85
2022/10/29 12:18:30;;;;;;;23.07;21.07;;;;;;;;;;5055728;28;20407;-79
2022/10/29 12:21:00;;;;;;;22.87;21.37;;;;;;;;;;5055507;28;20437;-79
2022/10/29 12:23:37;;;;;;;22.43;20.70;;;;;;;;;;5056254;28;20441;-79
2022/10/29 12:26:08;;;;;;;21.90;20.20;;;;;;;;;;5055878;28;20839;-80
2022/10/29 12:28:43;;;;;;;21.97;20.57;;;;;;;;;;5054772;28;20489;-82
2022/10/29 12:31:18;;;;;;;26.33;23.60;;;;;;;;;;5054526;28;20427;-80
2022/10/29 12:33:49;;;;;;;22.70;20.67;;;;;;;;;;5055116;28;20448;-80
2022/10/29 12:36:21;;;;;;;21.87;20.33;;;;;;;;;;5055578;28;20922;-80
2022/10/29 12:38:50;;;;;;;21.10;19.77;;;;;;;;;;5056378;28;20449;-80
2022/10/29 12:41:19;;;;;;;21.37;19.73;;;;;;;;;;5055566;28;20450;-79
2022/10/29 12:43:48;;;;;;;22.13;20.60;;;;;;;;;;5056171;28;20452;-79
2022/10/29 12:46:22;;;;;;;21.50;20.00;;;;;;;;;;5056007;28;20463;-80
2022/10/29 12:48:53;;;;;;;23.00;21.10;;;;;;;;;;5056306;28;20478;-80
2022/10/29 12:51:25;;;;;;;24.27;22.47;;;;;;;;;;5056062;28;20437;-80
2022/10/29 12:54:02;;;;;;;23.83;21.80;;;;;;;;;;5055971;28;20477;-80
2022/10/29 12:56:29;;;;;;;22.97;21.17;;;;;;;;;;5056607;28;20411;-80
2022/10/29 12:58:59;;;;;;;22.77;21.27;;;;;;;;;;5055936;28;20450;-80
2022/10/29 13:01:41;;;;;;;23.43;21.33;;;;;;;;;;5055637;28;20518;-79
2022/10/29 13:04:22;;;;;;;23.33;21.40;;;;;;;;;;5053970;28;20445;-81
2022/10/29 13:06:57;;;;;;;24.20;22.20;;;;;;;;;;5056097;28;20419;-80
2022/10/29 13:09:25;;;;;;;23.57;21.67;;;;;;;;;;5056779;28;20448;-80
2022/10/29 13:11:53;;;;;;;22.37;20.70;;;;;;;;;;5055822;28;20457;-81
2022/10/29 13:14:24;;;;;;;24.70;22.73;;;;;;;;;;5059402;28;20820;-80
2022/10/29 13:16:52;;;;;;;22.20;20.87;;;;;;;;;;5059854;28;20402;-80
2022/10/29 13:19:25;;;;;;;22.47;20.97;;;;;;;;;;5059679;28;20413;-80
2022/10/29 13:21:59;;;;;;;24.00;22.10;;;;;;;;;;5059370;28;20467;-80
2022/10/29 13:24:27;;;;;;;25.30;22.97;;;;;;;;;;5059840;28;20473;-80
2022/10/29 13:27:12;;;;;;;24.70;22.87;;;;;;;;;;5059863;28;20458;-79
2022/10/29 13:29:44;;;;;;;22.80;21.30;;;;;;;;;;5049654;28;20461;-79
2022/10/29 13:32:31;;;;;;;24.47;22.33;;;;;;;;;;5058035;28;20432;-80
2022/10/29 13:34:59;;;;;;;23.13;21.27;;;;;;;;;;5060194;28;20413;-80
2022/10/29 13:37:40;;;;;;;23.10;21.33;;;;;;;;;;5059293;28;20445;-79
2022/10/29 13:40:26;;;;;;;23.50;21.37;;;;;;;;;;5059120;28;20425;-79
2022/10/29 13:42:57;;;;;;;24.73;22.83;;;;;;;;;;5058991;28;20493;-80
2022/10/29 13:45:26;;;;;;;22.33;20.60;;;;;;;;;;5059566;28;20417;-80
2022/10/29 13:47:54;;;;;;;24.37;22.47;;;;;;;;;;5059487;28;20450;-81
2022/10/29 13:50:22;;;;;;;28.10;22.90;;;;;;;;;;5059352;28;20450;-80
2022/10/29 13:52:52;;;;;;;28.10;25.60;;;;;;;;;;5058778;28;20449;-78
2022/10/29 13:55:21;;;;;;;22.90;21.03;;;;;;;;;;5059571;28;20447;-80
2022/10/29 13:57:53;;;;;;;24.10;22.23;;;;;;;;;;5059612;28;20453;-80
2022/10/29 14:00:21;;;;;;;23.43;21.73;;;;;;;;;;5059639;28;20439;-80
2022/10/29 14:02:54;;;;;;;24.70;22.63;;;;;;;;;;5058697;28;20473;-80
2022/10/29 14:05:23;;;;;;;24.87;22.77;;;;;;;;;;5059210;28;20915;-80
2022/10/29 14:07:54;;;;;;;23.40;21.20;;;;;;;;;;5059095;28;20434;-82
2022/10/29 14:10:23;;;;;;;23.87;22.10;;;;;;;;;;5059267;28;20456;-80
2022/10/29 14:12:55;;;;;;;24.37;22.57;;;;;;;;;;5058200;28;20837;-79
2022/10/29 14:15:23;;;;;;;23.30;21.40;;;;;;;;;;5059071;28;20448;-79
2022/10/29 14:17:51;;;;;;;23.90;22.30;;;;;;;;;;5059028;28;20429;-79
2022/10/29 14:20:23;;;;;;;23.33;21.80;;;;;;;;;;5058969;28;20417;-80
2022/10/29 14:22:50;;;;;;;25.23;22.93;;;;;;;;;;5058102;28;20460;-80
2022/10/29 14:25:31;;;;;;;23.53;21.63;;;;;;;;;;5057779;28;20459;-79
2022/10/29 14:28:11;;;;;;;23.53;21.63;;;;;;;;;;5059055;28;20408;-80
2022/10/29 14:30:39;;;;;;;24.50;22.43;;;;;;;;;;5058104;28;20451;-80